Time;durP1;ratioP1;P1;durP2;ratioP2;P2;SDS_P1;SDS_P2;PMS_P1;PMS_P2;Temp;Humidity;BMP_temperature;BMP_pressure;BME280_temperature;BME280_humidity;BME280_pressure;Samples;Min_cycle;Max_cycle;Signal;HPM_P1;HPM_P2
2021/07/26 00:00:23;;;;;;;;;;;;;;;17.57;100.00;99776.27;1598339;88;20110;-70
2021/07/26 00:02:50;;;;;;;;;;;;;;;17.57;100.00;99774.91;1598899;89;20111;-69
2021/07/26 00:05:16;;;;;;;;;;;;;;;17.57;100.00;99772.20;1599217;89;20115;-72
2021/07/26 00:07:44;;;;;;;;;;;;;;;17.56;100.00;99773.84;1600517;88;20094;-70
2021/07/26 00:10:12;;;;;;;;;;;;;;;17.58;100.00;99769.73;1598834;88;20099;-70
2021/07/26 00:12:40;;;;;;;;;;;;;;;17.56;100.00;99773.31;1598919;88;20138;-71
2021/07/26 00:15:09;;;;;;;;;;;;;;;17.58;100.00;99774.35;1599118;88;20122;-70
2021/07/26 00:17:38;;;;;;;;;;;;;;;17.57;100.00;99773.55;1598517;89;20090;-70
2021/07/26 00:20:10;;;;;;;;;;;;;;;17.59;100.00;99775.98;1599654;88;20127;-71
2021/07/26 00:22:40;;;;;;;;;;;;;;;17.60;100.00;99776.78;1598676;88;20098;-72
2021/07/26 00:25:08;;;;;;;;;;;;;;;17.60;100.00;99772.16;1599494;88;20148;-70
2021/07/26 00:27:36;;;;;;;;;;;;;;;17.59;100.00;99774.63;1599016;87;20158;-72
2021/07/26 00:30:07;;;;;;;;;;;;;;;17.59;100.00;99769.20;1598869;89;20238;-70
2021/07/26 00:32:34;;;;;;;;;;;;;;;17.58;100.00;99770.28;1598614;89;21869;-72
2021/07/26 00:35:03;;;;;;;;;;;;;;;17.56;100.00;99769.77;1598830;88;20462;-71
2021/07/26 00:37:30;;;;;;;;;;;;;;;17.56;100.00;99763.81;1598922;88;20135;-71
2021/07/26 00:39:58;;;;;;;;;;;;;;;17.56;100.00;99765.69;1597950;89;20229;-70
2021/07/26 00:42:24;;;;;;;;;;;;;;;17.53;100.00;99761.66;1598368;88;20111;-71
2021/07/26 00:44:51;;;;;;;;;;;;;;;17.51;100.00;99757.63;1579427;90;21146;-73
2021/07/26 00:47:17;;;;;;;;;;;;;;;17.46;100.00;99755.80;1598806;88;20115;-70
2021/07/26 00:49:46;;;;;;;;;;;;;;;17.44;100.00;99759.91;1599000;89;20455;-70
2021/07/26 00:52:15;;;;;;;;;;;;;;;17.40;100.00;99756.99;1599121;88;20485;-72
2021/07/26 00:54:42;;;;;;;;;;;;;;;17.36;100.00;99758.11;1599486;88;20103;-71
2021/07/26 00:57:08;;;;;;;;;;;;;;;17.30;100.00;99747.09;1598571;88;21130;-72
2021/07/26 00:59:35;;;;;;;;;;;;;;;17.29;100.00;99747.38;1599685;88;20099;-70
2021/07/26 01:02:03;;;;;;;;;;;;;;;17.27;100.00;99746.33;1598782;88;20441;-70
2021/07/26 01:04:30;;;;;;;;;;;;;;;17.25;100.00;99749.08;1599152;88;20114;-71
2021/07/26 01:06:58;;;;;;;;;;;;;;;17.22;100.00;99750.48;1599354;88;20135;-69
2021/07/26 01:09:26;;;;;;;;;;;;;;;17.22;100.00;99748.29;1598719;88;20111;-69
2021/07/26 01:11:53;;;;;;;;;;;;;;;17.23;100.00;99749.37;1598726;88;20119;-70
2021/07/26 01:14:19;;;;;;;;;;;;;;;17.22;100.00;99747.77;1598860;89;20110;-70
2021/07/26 01:16:47;;;;;;;;;;;;;;;17.21;100.00;99738.00;1599086;88;20094;-72
2021/07/26 01:19:15;;;;;;;;;;;;;;;17.20;100.00;99737.75;1600283;88;20098;-72
2021/07/26 01:21:41;;;;;;;;;;;;;;;17.22;100.00;99728.78;1579581;90;21087;-71
2021/07/26 01:24:08;;;;;;;;;;;;;;;17.27;100.00;99731.41;1599458;88;20106;-70
2021/07/26 01:26:35;;;;;;;;;;;;;;;17.27;100.00;99727.87;1598954;88;20422;-71
2021/07/26 01:29:07;;;;;;;;;;;;;;;17.18;100.00;99739.95;1598752;88;20460;-71
2021/07/26 01:31:35;;;;;;;;;;;;;;;17.06;100.00;99728.73;1599345;88;20187;-72
2021/07/26 01:34:04;;;;;;;;;;;;;;;16.95;100.00;99728.04;1598864;88;20885;-71
2021/07/26 01:36:33;;;;;;;;;;;;;;;16.89;100.00;99723.80;1599313;88;20184;-70
2021/07/26 01:39:02;;;;;;;;;;;;;;;16.89;100.00;99731.94;1599039;88;20155;-70
2021/07/26 01:41:35;;;;;;;;;;;;;;;16.88;100.00;99731.69;1599151;89;20481;-70
2021/07/26 01:47:04;;;;;;;;;;;;;;;16.81;100.00;99725.26;1598790;89;21605;-71
2021/07/26 01:49:59;;;;;;;;;;;;;;;16.78;100.00;99725.84;1598946;88;20114;-70
2021/07/26 01:52:26;;;;;;;;;;;;;;;16.74;100.00;99732.10;1598961;88;20433;-70
2021/07/26 01:54:52;;;;;;;;;;;;;;;16.72;100.00;99732.38;1598338;88;20114;-70
2021/07/26 01:57:19;;;;;;;;;;;;;;;16.69;100.00;99736.48;1598465;88;20169;-70
2021/07/26 01:59:46;;;;;;;;;;;;;;;16.69;100.00;99739.75;1599335;88;21175;-72
2021/07/26 02:02:14;;;;;;;;;;;;;;;16.67;100.00;99737.31;1598847;88;20135;-71
2021/07/26 02:04:40;;;;;;;;;;;;;;;16.67;100.00;99733.80;1599080;88;20155;-71
2021/07/26 02:07:07;;;;;;;;;;;;;;;16.66;100.00;99734.36;1599098;88;20154;-71
2021/07/26 02:09:35;;;;;;;;;;;;;;;16.64;100.00;99736.55;1599287;88;20155;-70
2021/07/26 02:12:03;;;;;;;;;;;;;;;16.62;100.00;99750.13;1598932;89;21161;-71
2021/07/26 02:14:30;;;;;;;;;;;;;;;16.57;100.00;99740.70;1598454;88;20115;-70
2021/07/26 02:16:56;;;;;;;;;;;;;;;16.57;100.00;99741.50;1598862;89;20107;-72
2021/07/26 02:19:23;;;;;;;;;;;;;;;16.55;100.00;99746.40;1599301;88;20604;-71
2021/07/26 02:21:51;;;;;;;;;;;;;;;16.54;100.00;99739.38;1599003;89;20115;-69
2021/07/26 02:24:18;;;;;;;;;;;;;;;16.56;100.00;99744.49;1598840;89;21174;-70
2021/07/26 02:26:45;;;;;;;;;;;;;;;16.62;100.00;99737.94;1607904;88;20131;-72
2021/07/26 02:29:11;;;;;;;;;;;;;;;16.66;100.00;99743.04;1626664;87;20439;-70
2021/07/26 02:31:38;;;;;;;;;;;;;;;16.69;100.00;99745.16;1626978;87;20626;-71
2021/07/26 02:34:04;;;;;;;;;;;;;;;16.72;100.00;99743.22;1626495;87;20449;-70
2021/07/26 02:36:30;;;;;;;;;;;;;;;16.75;100.00;99746.70;1626869;87;21797;-70
2021/07/26 02:38:57;;;;;;;;;;;;;;;16.78;100.00;99749.37;1626366;88;20429;-71
2021/07/26 02:41:23;;;;;;;;;;;;;;;16.81;100.00;99748.85;1626609;87;20093;-70
2021/07/26 02:43:51;;;;;;;;;;;;;;;16.84;100.00;99752.33;1626684;87;20106;-71
2021/07/26 02:46:17;;;;;;;;;;;;;;;16.90;100.00;99749.27;1626784;87;20721;-72
2021/07/26 02:48:45;;;;;;;;;;;;;;;16.96;100.00;99754.08;1626612;87;20950;-72
2021/07/26 02:51:15;;;;;;;;;;;;;;;17.02;100.00;99755.60;1626599;88;20126;-72
2021/07/26 02:53:43;;;;;;;;;;;;;;;17.07;100.00;99750.66;1626436;88;20108;-70
2021/07/26 02:56:10;;;;;;;;;;;;;;;17.12;100.00;99750.59;1626324;87;20555;-71
2021/07/26 02:58:37;;;;;;;;;;;;;;;17.19;100.00;99748.88;1598897;88;20105;-70
2021/07/26 03:01:10;;;;;;;;;;;;;;;17.26;100.00;99753.40;1626516;88;21586;-70
2021/07/26 03:03:38;;;;;;;;;;;;;;;17.30;100.00;99753.88;1626359;87;20181;-71
2021/07/26 03:06:14;;;;;;;;;;;;;;;17.39;100.00;99758.08;1626474;87;20440;-71
2021/07/26 03:08:42;;;;;;;;;;;;;;;17.44;100.00;99758.02;1626569;86;37937;-70
2021/07/26 03:11:10;;;;;;;;;;;;;;;17.47;100.00;99760.70;1626503;87;20183;-71
2021/07/26 03:13:41;;;;;;;;;;;;;;;17.49;100.00;99763.90;1626337;87;20585;-71
2021/07/26 03:16:11;;;;;;;;;;;;;;;17.49;100.00;99762.55;1626236;87;20115;-72
2021/07/26 03:18:38;;;;;;;;;;;;;;;17.48;100.00;99761.74;1626605;87;20748;-71
2021/07/26 03:21:05;;;;;;;;;;;;;;;17.48;100.00;99763.10;1599026;88;20170;-70
2021/07/26 03:23:32;;;;;;;;;;;;;;;17.49;100.00;99759.83;1626740;87;20113;-71
2021/07/26 03:25:59;;;;;;;;;;;;;;;17.48;100.00;99761.74;1626423;87;21201;-72
2021/07/26 03:28:26;;;;;;;;;;;;;;;17.49;100.00;99762.02;1602360;87;20143;-71
2021/07/26 03:30:52;;;;;;;;;;;;;;;17.48;100.00;99767.17;1598757;88;20418;-71
2021/07/26 03:33:20;;;;;;;;;;;;;;;17.47;100.00;99764.22;1598213;88;20163;-72
2021/07/26 03:35:46;;;;;;;;;;;;;;;17.49;100.00;99763.90;1599230;88;20111;-71
2021/07/26 03:38:13;;;;;;;;;;;;;;;17.52;100.00;99769.56;1599312;89;22202;-70
2021/07/26 03:40:40;;;;;;;;;;;;;;;17.56;100.00;99762.45;1599284;88;20430;-70
2021/07/26 03:43:06;;;;;;;;;;;;;;;17.62;100.00;99765.89;1578965;88;20156;-72
2021/07/26 03:45:33;;;;;;;;;;;;;;;17.65;100.00;99769.92;1599333;88;20576;-71
2021/07/26 03:48:00;;;;;;;;;;;;;;;17.67;100.00;99778.58;1579754;89;20152;-69
2021/07/26 03:50:27;;;;;;;;;;;;;;;17.69;100.00;99775.02;1597779;89;21167;-72
2021/07/26 03:52:55;;;;;;;;;;;;;;;17.73;100.00;99775.47;1599066;88;20124;-69
2021/07/26 03:55:27;;;;;;;;;;;;;;;17.76;100.00;99770.83;1598642;89;20449;-69
2021/07/26 03:57:54;;;;;;;;;;;;;;;17.81;100.00;99774.57;1599137;88;20098;-72
2021/07/26 04:00:25;;;;;;;;;;;;;;;17.86;100.00;99770.41;1599414;88;20134;-70
2021/07/26 04:03:03;;;;;;;;;;;;;;;17.91;100.00;99771.16;1579271;89;21107;-69
2021/07/26 04:05:28;;;;;;;;;;;;;;;17.94;100.00;99766.48;1598000;89;20413;-71
2021/07/26 04:07:53;;;;;;;;;;;;;;;17.98;100.00;99768.87;1599940;88;20124;-70
2021/07/26 04:10:21;;;;;;;;;;;;;;;18.00;100.00;99773.98;1598859;88;20173;-72
2021/07/26 04:12:51;;;;;;;;;;;;;;;18.04;100.00;99774.20;1599414;88;20115;-69
2021/07/26 04:15:18;;;;;;;;;;;;;;;18.08;100.00;99779.28;1598770;89;21177;-71
2021/07/26 04:17:45;;;;;;;;;;;;;;;18.10;100.00;99777.08;1599599;88;20131;-70
2021/07/26 04:20:13;;;;;;;;;;;;;;;18.12;100.00;99774.87;1598495;88;20446;-69
2021/07/26 04:22:40;;;;;;;;;;;;;;;18.16;100.00;99774.54;1598925;88;20155;-71
2021/07/26 04:25:08;;;;;;;;;;;;;;;18.19;100.00;99778.00;1599317;88;20439;-70
2021/07/26 04:27:36;;;;;;;;;;;;;;;18.23;100.00;99780.39;1609926;87;21144;-70
2021/07/26 04:30:05;;;;;;;;;;;;;;;18.31;100.00;99781.61;1626362;87;20148;-71
2021/07/26 04:32:40;;;;;;;;;;;;;;;18.38;100.00;99790.17;1626424;87;20089;-72
2021/07/26 04:35:08;;;;;;;;;;;;;;;18.45;100.00;99787.87;1598631;87;20604;-72
2021/07/26 04:37:34;;;;;;;;;;;;;;;18.55;100.00;99779.52;1626689;87;20472;-70
2021/07/26 04:40:00;;;;;;;;;;;;;;;18.64;100.00;99783.69;1626467;88;21175;-72
2021/07/26 04:42:27;;;;;;;;;;;;;;;18.82;100.00;99787.47;1626593;87;20081;-71
2021/07/26 04:44:53;;;;;;;;;;;;;;;19.00;100.00;99787.09;1626382;87;20444;-71
2021/07/26 04:47:20;;;;;;;;;;;;;;;19.15;100.00;99787.31;1626619;88;20126;-71
2021/07/26 04:49:46;;;;;;;;;;;;;;;19.42;100.00;99789.17;1626340;87;20109;-70
2021/07/26 04:52:13;;;;;;;;;;;;;;;19.66;100.00;99788.89;1626610;87;21134;-72
2021/07/26 04:54:39;;;;;;;;;;;;;;;19.86;100.00;99788.42;1626328;88;20153;-71
2021/07/26 04:57:06;;;;;;;;;;;;;;;19.94;100.00;99792.31;1626574;88;20097;-71
2021/07/26 04:59:33;;;;;;;;;;;;;;;20.09;100.00;99791.16;1626374;87;20131;-70
2021/07/26 05:01:59;;;;;;;;;;;;;;;20.15;100.00;99785.02;1626673;88;20157;-70
2021/07/26 05:04:26;;;;;;;;;;;;;;;20.30;100.00;99802.33;1626427;87;21190;-71
2021/07/26 05:07:01;;;;;;;;;;;;;;;20.61;100.00;99805.08;1626827;87;20263;-71
2021/07/26 05:09:29;;;;;;;;;;;;;;;20.95;100.00;99800.30;1626405;87;20129;-71
2021/07/26 05:12:01;;;;;;;;;;;;;;;21.26;100.00;99806.78;1626623;88;20097;-71
2021/07/26 05:14:28;;;;;;;;;;;;;;;21.38;100.00;99808.32;1626411;88;20081;-71
2021/07/26 05:16:56;;;;;;;;;;;;;;;21.40;100.00;99810.20;1626699;87;21136;-72
2021/07/26 05:19:23;;;;;;;;;;;;;;;21.65;100.00;99809.97;1626429;88;20121;-72
2021/07/26 05:21:49;;;;;;;;;;;;;;;21.80;100.00;99808.67;1626873;88;20179;-71
2021/07/26 05:24:16;;;;;;;;;;;;;;;21.88;100.00;99816.63;1626356;88;20126;-70
2021/07/26 05:26:42;;;;;;;;;;;;;;;21.86;100.00;99807.41;1627075;87;20109;-70
2021/07/26 05:29:09;;;;;;;;;;;;;;;21.83;100.00;99816.25;1601738;87;21186;-70
2021/07/26 05:31:36;;;;;;;;;;;;;;;21.67;100.00;99818.66;1598953;88;20095;-70
2021/07/26 05:34:02;;;;;;;;;;;;;;;21.62;100.00;99820.18;1599138;88;20242;-72
2021/07/26 05:36:29;;;;;;;;;;;;;;;21.58;100.00;99821.40;1598711;89;20185;-71
2021/07/26 05:38:55;;;;;;;;;;;;;;;21.56;100.00;99825.00;1599614;88;20111;-71
2021/07/26 05:41:22;;;;;;;;;;;;;;;21.56;100.00;99825.00;1599225;88;21234;-71
2021/07/26 05:43:48;;;;;;;;;;;;;;;21.57;100.00;99825.80;1598294;88;20123;-71
2021/07/26 05:46:15;;;;;;;;;;;;;;;21.60;100.00;99828.69;1599048;88;20131;-72
2021/07/26 05:48:42;;;;;;;;;;;;;;;21.71;100.00;99829.75;1598954;89;20123;-72
2021/07/26 05:51:09;;;;;;;;;;;;;;;21.84;100.00;99829.58;1598123;88;20131;-72
2021/07/26 05:53:37;;;;;;;;;;;;;;;22.04;100.00;99834.94;1599084;89;21121;-70
2021/07/26 05:56:05;;;;;;;;;;;;;;;22.16;100.00;99840.31;1598994;88;20111;-71
2021/07/26 05:58:40;;;;;;;;;;;;;;;22.33;100.00;99833.48;1599227;88;20103;-71
2021/07/26 06:02:25;;;;;;;;;;;;;;;22.64;100.00;99842.01;1598253;88;20490;-71
2021/07/26 06:03:39;;;;;;;;;;;;;;;22.89;100.00;99835.61;1574229;89;20233;-72
2021/07/26 06:06:06;;;;;;;;;;;;;;;23.01;100.00;99839.05;1598023;88;21557;-72
2021/07/26 06:08:33;;;;;;;;;;;;;;;23.21;100.00;99837.48;1599490;88;20115;-70
2021/07/26 06:11:03;;;;;;;;;;;;;;;23.39;100.00;99831.89;1598809;88;20150;-73
2021/07/26 06:13:31;;;;;;;;;;;;;;;23.45;100.00;99834.11;1598792;88;20135;-72
2021/07/26 06:15:57;;;;;;;;;;;;;;;23.55;100.00;99832.91;1599177;89;20110;-72
2021/07/26 06:18:28;;;;;;;;;;;;;;;23.68;100.00;99836.52;1599053;88;21170;-69
2021/07/26 06:20:54;;;;;;;;;;;;;;;23.73;100.00;99834.97;1599036;88;20083;-70
2021/07/26 06:23:21;;;;;;;;;;;;;;;23.66;100.00;99836.05;1578272;88;20119;-70
2021/07/26 06:25:49;;;;;;;;;;;;;;;23.55;100.00;99842.50;1599001;88;20115;-71
2021/07/26 06:28:16;;;;;;;;;;;;;;;23.61;100.00;99842.52;1597665;87;20461;-70
2021/07/26 06:30:43;;;;;;;;;;;;;;;23.59;100.00;99844.81;1595271;88;20936;-70
2021/07/26 06:33:10;;;;;;;;;;;;;;;23.51;100.00;99843.72;1595448;88;20143;-72
2021/07/26 06:35:37;;;;;;;;;;;;;;;23.81;100.00;99848.36;1595422;88;20111;-72
2021/07/26 06:38:04;;;;;;;;;;;;;;;23.59;100.00;99847.56;1595306;88;20154;-69
2021/07/26 06:40:31;;;;;;;;;;;;;;;23.36;100.00;99848.42;1594511;88;20212;-69
2021/07/26 06:42:59;;;;;;;;;;;;;;;23.29;100.00;99847.57;1593972;88;21167;-71
2021/07/26 06:45:28;;;;;;;;;;;;;;;23.30;100.00;99842.92;1594491;88;20459;-72
2021/07/26 06:47:54;;;;;;;;;;;;;;;23.60;100.00;99842.88;1594573;89;20448;-71
2021/07/26 06:50:29;;;;;;;;;;;;;;;24.18;100.00;99845.22;1594667;88;20765;-74
2021/07/26 06:52:54;;;;;;;;;;;;;;;24.73;100.00;99853.59;1594778;88;20100;-70
2021/07/26 06:55:23;;;;;;;;;;;;;;;25.15;100.00;99851.20;1593938;88;21123;-71
2021/07/26 06:57:54;;;;;;;;;;;;;;;25.31;94.79;99852.72;1593723;89;20132;-69
2021/07/26 07:00:23;;;;;;;;;;;;;;;25.21;94.81;99849.87;1589460;88;20232;-74
2021/07/26 07:02:51;;;;;;;;;;;;;;;25.47;90.74;99851.42;1595187;88;20156;-71
2021/07/26 07:05:18;;;;;;;;;;;;;;;25.67;90.36;99855.94;1594598;88;20686;-74
2021/07/26 07:07:50;;;;;;;;;;;;;;;25.98;87.73;99856.67;1566794;90;20131;-72
2021/07/26 07:10:19;;;;;;;;;;;;;;;26.15;82.09;99861.08;1595031;88;20192;-73
2021/07/26 07:12:50;;;;;;;;;;;;;;;26.24;81.03;99857.60;1594489;88;20289;-70
2021/07/26 07:15:22;;;;;;;;;;;;;;;26.45;83.07;99857.35;1566990;90;20492;-70
2021/07/26 07:17:54;;;;;;;;;;;;;;;26.64;74.33;99861.41;1547641;88;20191;-70
2021/07/26 07:20:22;;;;;;;;;;;;;;;26.99;73.28;99867.58;1566474;90;22216;-68
2021/07/26 07:23:00;;;;;;;;;;;;;;;26.91;68.47;99853.63;1593573;88;20171;-70
2021/07/26 07:25:39;;;;;;;;;;;;;;;26.89;66.46;99866.16;1592905;88;20156;-72
2021/07/26 07:28:04;;;;;;;;;;;;;;;27.09;66.56;99865.06;1590204;88;20182;-70
2021/07/26 07:30:31;;;;;;;;;;;;;;;27.10;65.28;99864.52;1592655;89;20222;-70
2021/07/26 07:33:00;;;;;;;;;;;;;;;27.44;67.74;99864.89;1591974;89;22182;-70
2021/07/26 07:35:34;;;;;;;;;;;;;;;27.80;65.72;99868.64;1592253;89;20145;-71
2021/07/26 07:38:02;;;;;;;;;;;;;;;27.78;64.14;99869.60;1592400;89;20180;-71
2021/07/26 07:40:30;;;;;;;;;;;;;;;27.64;61.63;99871.26;1591283;88;20580;-70
2021/07/26 07:42:59;;;;;;;;;;;;;;;27.58;60.22;99867.41;1591687;89;20180;-70
2021/07/26 07:45:31;;;;;;;;;;;;;;;27.46;63.48;99859.23;1591547;89;22008;-69
2021/07/26 07:47:58;;;;;;;;;;;;;;;27.81;62.03;99870.84;1591246;88;20199;-73
2021/07/26 07:50:25;;;;;;;;;;;;;;;28.13;61.37;99863.81;1592078;89;20124;-72
2021/07/26 07:52:53;;;;;;;;;;;;;;;28.24;59.84;99864.02;1567309;89;20479;-70
2021/07/26 07:55:22;;;;;;;;;;;;;;;28.21;59.06;99871.85;1591848;89;20286;-72
2021/07/26 07:57:58;;;;;;;;;;;;;;;28.12;57.42;99864.96;1591811;88;21168;-69
2021/07/26 08:00:33;;;;;;;;;;;;;;;28.04;55.17;99876.45;1586884;89;20200;-73
2021/07/26 08:03:08;;;;;;;;;;;;;;;28.20;56.38;99877.16;1583851;88;20507;-72
2021/07/26 08:05:53;;;;;;;;;;;;;;;28.42;56.62;99876.98;1591819;89;20185;-72
2021/07/26 08:08:34;;;;;;;;;;;;;;;28.54;52.63;99874.67;1591346;89;20180;-71
2021/07/26 08:11:05;;;;;;;;;;;;;;;28.81;54.56;99870.56;1561493;89;20095;-70
2021/07/26 08:13:31;;;;;;;;;;;;;;;29.02;55.16;99875.66;1593811;89;20188;-68
2021/07/26 08:15:58;;;;;;;;;;;;;;;29.31;53.09;99867.84;1594082;90;20360;-71
2021/07/26 08:18:25;;;;;;;;;;;;;;;29.23;52.17;99882.14;1594222;90;20164;-70
2021/07/26 08:20:53;;;;;;;;;;;;;;;29.28;52.20;99881.23;1593475;90;20578;-72
2021/07/26 08:23:20;;;;;;;;;;;;;;;29.21;52.59;99875.59;1594191;90;21187;-71
2021/07/26 08:25:47;;;;;;;;;;;;;;;29.09;52.81;99873.04;1594239;90;20211;-69
2021/07/26 08:28:15;;;;;;;;;;;;;;;29.06;50.37;99873.79;1593668;89;20111;-72
2021/07/26 08:30:43;;;;;;;;;;;;;;;28.96;51.26;99868.27;1593932;90;20250;-71
2021/07/26 08:33:10;;;;;;;;;;;;;;;29.12;52.03;99872.29;1594134;90;20255;-71
2021/07/26 08:35:37;;;;;;;;;;;;;;;29.58;49.29;99870.78;1594127;90;21182;-72
2021/07/26 08:38:04;;;;;;;;;;;;;;;29.87;48.28;99862.89;1594211;90;20172;-72
2021/07/26 08:40:31;;;;;;;;;;;;;;;30.02;49.77;99866.62;1573875;90;20223;-74
2021/07/26 08:43:04;;;;;;;;;;;;;;;29.98;48.13;99867.95;1594248;90;20482;-73
2021/07/26 08:45:28;;;;;;;;;;;;;;;29.74;47.69;99867.84;1593510;90;20241;-72
2021/07/26 08:47:56;;;;;;;;;;;;;;;29.57;47.63;99867.81;1593441;89;21233;-72
2021/07/26 08:50:22;;;;;;;;;;;;;;;29.47;47.80;99861.53;1592671;89;20466;-72
2021/07/26 08:52:49;;;;;;;;;;;;;;;29.61;48.59;99864.50;1566074;90;20238;-71
2021/07/26 08:55:18;;;;;;;;;;;;;;;29.48;47.07;99858.41;1566024;90;20610;-70
2021/07/26 08:57:47;;;;;;;;;;;;;;;29.24;48.52;99854.70;1591642;89;20250;-68
2021/07/26 09:00:17;;;;;;;;;;;;;;;29.04;47.87;99859.51;1591513;89;21117;-71
2021/07/26 09:02:44;;;;;;;;;;;;;;;29.04;48.05;99852.01;1591677;89;20128;-71
2021/07/26 09:05:13;;;;;;;;;;;;;;;29.52;46.71;99861.80;1592047;89;20503;-74
2021/07/26 09:07:42;;;;;;;;;;;;;;;29.54;44.53;99860.84;1591849;89;20908;-71
2021/07/26 09:10:17;;;;;;;;;;;;;;;29.33;45.43;99851.68;1593609;89;20180;-73
2021/07/26 09:12:44;;;;;;;;;;;;;;;29.51;45.40;99855.47;1592244;89;21207;-71
2021/07/26 09:15:37;;;;;;;;;;;;;;;29.84;45.65;99863.62;1591580;89;20144;-69
2021/07/26 09:18:05;;;;;;;;;;;;;;;29.66;44.35;99871.11;1592718;89;20243;-73
2021/07/26 09:20:33;;;;;;;;;;;;;;;29.82;45.07;99861.84;1592270;89;20474;-71
2021/07/26 09:23:13;;;;;;;;;;;;;;;29.73;44.33;99866.85;1592132;89;20137;-73
2021/07/26 09:25:43;;;;;;;;;;;;;;;29.69;43.38;99869.56;1592173;88;20784;-73
2021/07/26 09:28:12;;;;;;;;;;;;;;;30.13;43.97;99871.67;1592021;89;20203;-69
2021/07/26 09:30:52;;;;;;;;;;;;;;;30.05;43.10;99870.80;1585989;88;20213;-72
2021/07/26 09:33:29;;;;;;;;;;;;;;;29.98;43.76;99865.77;1585870;89;20287;-74
2021/07/26 09:36:13;;;;;;;;;;;;;;;30.09;42.65;99850.09;1585811;89;20132;-71
2021/07/26 09:38:55;;;;;;;;;;;;;;;30.09;43.35;99863.34;1585921;89;21183;-72
2021/07/26 09:41:45;;;;;;;;;;;;;;;30.05;43.60;99868.62;1585993;89;20213;-73
2021/07/26 09:44:12;;;;;;;;;;;;;;;29.87;42.51;99855.38;1586070;88;20187;-73
2021/07/26 09:46:39;;;;;;;;;;;;;;;29.76;41.80;99868.27;1586041;89;20550;-72
2021/07/26 09:49:09;;;;;;;;;;;;;;;30.07;42.87;99866.28;1585472;89;20141;-74
2021/07/26 09:51:36;;;;;;;;;;;;;;;30.07;41.63;99868.45;1586721;89;21145;-71
2021/07/26 09:54:03;;;;;;;;;;;;;;;29.95;41.74;99850.72;1586319;89;21078;-71
2021/07/26 09:56:32;;;;;;;;;;;;;;;30.04;40.37;99859.53;1585563;89;20731;-73
2021/07/26 09:58:58;;;;;;;;;;;;;;;30.40;40.66;99857.15;1586352;89;20179;-73
2021/07/26 10:01:25;;;;;;;;;;;;;;;30.47;41.12;99859.20;1586185;89;20476;-73
2021/07/26 10:03:51;;;;;;;;;;;;;;;30.63;40.45;99858.97;1586234;89;21808;-70
2021/07/26 10:06:18;;;;;;;;;;;;;;;30.19;40.60;99848.62;1586329;89;20581;-73
2021/07/26 10:08:49;;;;;;;;;;;;;;;29.90;41.01;99846.91;1565031;90;20128;-72
2021/07/26 10:11:17;;;;;;;;;;;;;;;29.97;41.31;99849.76;1585955;89;20215;-72
2021/07/26 10:13:47;;;;;;;;;;;;;;;30.07;41.15;99843.55;1585406;89;20491;-73
2021/07/26 10:16:18;;;;;;;;;;;;;;;29.78;41.94;99848.55;1585807;89;21936;-70
2021/07/26 10:18:48;;;;;;;;;;;;;;;29.27;43.09;99845.66;1584773;89;20211;-72
2021/07/26 10:21:20;;;;;;;;;;;;;;;28.82;44.15;99830.16;1585417;89;20181;-71
2021/07/26 10:23:59;;;;;;;;;;;;;;;28.63;45.37;99837.14;1585385;89;20141;-72
2021/07/26 10:26:37;;;;;;;;;;;;;;;28.81;45.54;99838.80;1586038;89;20128;-71
2021/07/26 10:29:03;;;;;;;;;;;;;;;29.06;45.03;99835.10;1585330;87;21905;-70
2021/07/26 10:31:36;;;;;;;;;;;;;;;29.39;43.73;99841.87;1600464;89;20140;-72
2021/07/26 10:34:15;;;;;;;;;;;;;;;29.73;43.40;99836.42;1600434;89;20483;-72
2021/07/26 10:36:44;;;;;;;;;;;;;;;30.06;42.75;99846.11;1600449;89;20483;-69
2021/07/26 10:39:12;;;;;;;;;;;;;;;30.53;41.52;99843.25;1600504;88;20179;-67
2021/07/26 10:41:46;;;;;;;;;;;;;;;30.51;40.93;99851.14;1600516;89;21157;-75
2021/07/26 10:44:20;;;;;;;;;;;;;;;30.83;38.81;99849.86;1600333;89;20132;-72
2021/07/26 10:47:03;;;;;;;;;;;;;;;31.11;37.81;99842.33;1600453;89;20471;-70
2021/07/26 10:49:45;;;;;;;;;;;;;;;31.33;36.07;99845.44;1600533;88;20140;-72
2021/07/26 10:52:25;;;;;;;;;;;;;;;31.50;37.75;99851.50;1600570;89;20184;-73
2021/07/26 10:54:54;;;;;;;;;;;;;;;31.85;36.64;99855.62;1600237;88;21796;-71
2021/07/26 10:57:40;;;;;;;;;;;;;;;31.76;36.70;99853.22;1599808;88;20183;-72
2021/07/26 11:00:15;;;;;;;;;;;;;;;31.87;37.19;99856.02;1600572;89;20115;-71
2021/07/26 11:02:47;;;;;;;;;;;;;;;31.61;36.85;99847.61;1600360;89;20188;-71
2021/07/26 11:05:31;;;;;;;;;;;;;;;31.45;36.26;99854.65;1600624;88;20498;-72
2021/07/26 11:08:23;;;;;;;;;;;;;;;30.91;35.85;99843.19;1600594;89;21157;-75
2021/07/26 11:10:57;;;;;;;;;;;;;;;30.18;37.56;99856.11;1599762;89;20513;-74
2021/07/26 11:13:51;;;;;;;;;;;;;;;29.93;39.27;99853.66;1600649;88;20124;-72
2021/07/26 11:16:27;;;;;;;;;;;;;;;29.66;40.00;99844.83;1600450;89;20159;-73
2021/07/26 11:18:54;;;;;;;;;;;;;;;29.81;40.87;99840.86;1549882;92;20282;-71
2021/07/26 11:21:23;;;;;;;;;;;;;;;30.15;40.97;99839.47;1551008;92;21329;-75
2021/07/26 11:23:53;;;;;;;;;;;;;;;30.46;40.17;99836.85;1508800;92;20284;-73
2021/07/26 11:26:23;;;;;;;;;;;;;;;30.16;40.22;99820.30;1551532;92;20443;-73
2021/07/26 11:28:53;;;;;;;;;;;;;;;30.19;41.17;99840.31;1551408;92;20432;-72
2021/07/26 11:31:28;;;;;;;;;;;;;;;29.96;40.34;99831.55;1539493;91;20179;-74
2021/07/26 11:34:06;;;;;;;;;;;;;;;29.69;41.56;99836.37;1537436;92;21183;-71
2021/07/26 11:36:33;;;;;;;;;;;;;;;30.01;39.70;99823.50;1535657;93;20134;-71
2021/07/26 11:39:05;;;;;;;;;;;;;;;29.93;39.39;99825.39;1535988;93;20155;-75
2021/07/26 11:41:34;;;;;;;;;;;;;;;29.52;40.80;99822.52;1535765;92;20176;-72
2021/07/26 11:44:01;;;;;;;;;;;;;;;29.30;41.90;99825.58;1535854;93;20152;-72
2021/07/26 11:46:31;;;;;;;;;;;;;;;29.27;42.54;99821.57;1535668;93;21189;-72
2021/07/26 11:48:58;;;;;;;;;;;;;;;29.20;43.93;99823.44;1535598;92;20218;-74
2021/07/26 11:51:35;;;;;;;;;;;;;;;29.15;44.00;99825.94;1535814;92;20159;-73
2021/07/26 11:54:05;;;;;;;;;;;;;;;29.10;42.46;99814.41;1535925;92;20135;-74
2021/07/26 11:56:32;;;;;;;;;;;;;;;29.54;43.46;99815.21;1574105;90;20188;-74
2021/07/26 11:59:20;;;;;;;;;;;;;;;30.23;41.36;99817.59;1592045;89;21181;-71
2021/07/26 12:01:49;;;;;;;;;;;;;;;30.13;41.07;99811.59;1592317;88;20205;-74
2021/07/26 12:04:16;;;;;;;;;;;;;;;29.87;42.65;99818.63;1592534;89;20124;-71
2021/07/26 12:06:53;;;;;;;;;;;;;;;29.57;42.56;99816.66;1592360;89;20144;-70
2021/07/26 12:09:20;;;;;;;;;;;;;;;28.90;43.75;99815.87;1593167;89;20201;-72
2021/07/26 12:11:46;;;;;;;;;;;;;;;28.89;44.31;99819.02;1592144;89;21795;-71
2021/07/26 12:14:30;;;;;;;;;;;;;;;28.62;46.31;99820.36;1592442;89;20140;-68
2021/07/26 12:17:00;;;;;;;;;;;;;;;28.47;46.17;99812.42;1592453;89;20136;-71
2021/07/26 12:19:27;;;;;;;;;;;;;;;28.46;47.03;99812.78;1592217;88;20500;-73
2021/07/26 12:21:55;;;;;;;;;;;;;;;28.57;47.46;99810.42;1592184;88;20247;-71
2021/07/26 12:24:45;;;;;;;;;;;;;;;28.53;48.08;99814.28;1565111;90;22184;-72
2021/07/26 12:27:14;;;;;;;;;;;;;;;28.32;48.55;99807.21;1591979;89;20165;-74
2021/07/26 12:29:58;;;;;;;;;;;;;;;27.82;49.82;99802.13;1586393;88;20140;-72
2021/07/26 12:32:25;;;;;;;;;;;;;;;27.86;49.38;99803.00;1585293;89;20188;-72
2021/07/26 12:35:20;;;;;;;;;;;;;;;27.79;50.15;99803.63;1585418;89;20207;-74
2021/07/26 12:38:13;;;;;;;;;;;;;;;27.82;50.74;99802.69;1585259;89;21156;-71
2021/07/26 12:40:43;;;;;;;;;;;;;;;27.79;50.56;99801.45;1585521;89;20200;-71
2021/07/26 12:43:16;;;;;;;;;;;;;;;27.92;49.92;99794.63;1585619;89;20197;-69
2021/07/26 12:45:59;;;;;;;;;;;;;;;27.98;49.49;99794.56;1585530;89;20235;-68
2021/07/26 12:48:24;;;;;;;;;;;;;;;28.25;49.38;99790.52;1585407;89;20511;-72
2021/07/26 12:50:51;;;;;;;;;;;;;;;28.40;50.65;99790.98;1585315;89;21165;-71
2021/07/26 12:53:17;;;;;;;;;;;;;;;28.50;49.72;99790.19;1585418;88;20267;-70
2021/07/26 12:55:45;;;;;;;;;;;;;;;28.51;49.72;99789.01;1585586;89;20498;-73